aviador You're here:

LFRZ Decoded Metar

ST.-NAZAIRE in FRANCE
Report Time2018-02-18 21:30:00
UTC Time2018-02-18 22:02:04
Flight Rules lifr LIFR
Wind120° at 04 kt
W.Decomp.*RWY 08: 3.0 kt HW 2.7 kt RCW
W.Rank120° ranks 27
Current wind is below 120° avg. (6.7)
Visibility3900 m
Phenomena:Mist
Clouds:Overcast 002 Hf
Ceiling200 ft
Temp09°C (ISA -6)
Dew Point09°C (100% RH)
AAT7.3°C
QNH1020 hPa
Density Alt-787 ft
Elevation13 ft
Report Wrong Elevation
Raw Report
METAR LFRZ 182130Z AUTO 12004KT 3900 BR OVC002 09/09 Q1020 TEMPO 2000
DZ=

Extra information for LFRZ:More info

Metar Taf Metar & Taf Last 4 Metars F.Rules Stats Wind Profile Meteogram Temp Stats Airport Information Weather charts Add Link Nearby VenuesMetar ALERT Operation Metar Decoded Social comments